sensor_id;sensor_type;location;lat;lon;timestamp;P1;durP1;ratioP1;P2;durP2;ratioP2
21334;SDS011;69435;52.670;13.544;2023-07-29T00:02:28;4.60;;;4.20;;
21334;SDS011;69435;52.670;13.544;2023-07-29T00:05:16;4.97;;;4.63;;
21334;SDS011;69435;52.670;13.544;2023-07-29T00:08:02;5.23;;;4.77;;
21334;SDS011;69435;52.670;13.544;2023-07-29T00:10:48;4.90;;;4.40;;
21334;SDS011;69435;52.670;13.544;2023-07-29T00:13:34;5.23;;;4.83;;
21334;SDS011;69435;52.670;13.544;2023-07-29T00:16:20;4.80;;;4.40;;
21334;SDS011;69435;52.670;13.544;2023-07-29T00:19:09;5.87;;;5.20;;
21334;SDS011;69435;52.670;13.544;2023-07-29T00:21:55;4.43;;;4.13;;
21334;SDS011;69435;52.670;13.544;2023-07-29T00:24:41;4.50;;;4.20;;
21334;SDS011;69435;52.670;13.544;2023-07-29T00:27:26;5.10;;;4.70;;
21334;SDS011;69435;52.670;13.544;2023-07-29T00:30:12;5.27;;;4.83;;
21334;SDS011;69435;52.670;13.544;2023-07-29T00:32:59;4.40;;;4.10;;
21334;SDS011;69435;52.670;13.544;2023-07-29T00:35:45;5.03;;;4.63;;
21334;SDS011;69435;52.670;13.544;2023-07-29T00:38:30;4.37;;;3.97;;
21334;SDS011;69435;52.670;13.544;2023-07-29T00:41:17;5.23;;;4.83;;
21334;SDS011;69435;52.670;13.544;2023-07-29T00:44:03;5.13;;;4.63;;
21334;SDS011;69435;52.670;13.544;2023-07-29T00:46:50;8.10;;;4.73;;
21334;SDS011;69435;52.670;13.544;2023-07-29T00:49:38;5.30;;;4.40;;
21334;SDS011;69435;52.670;13.544;2023-07-29T00:52:24;5.30;;;4.63;;
21334;SDS011;69435;52.670;13.544;2023-07-29T00:55:11;5.00;;;4.60;;
21334;SDS011;69435;52.670;13.544;2023-07-29T00:57:57;4.97;;;4.60;;
21334;SDS011;69435;52.670;13.544;2023-07-29T01:00:43;4.03;;;3.80;;
21334;SDS011;69435;52.670;13.544;2023-07-29T01:03:30;4.47;;;4.07;;
21334;SDS011;69435;52.670;13.544;2023-07-29T01:06:23;5.10;;;4.70;;
21334;SDS011;69435;52.670;13.544;2023-07-29T01:09:40;5.50;;;4.10;;
21334;SDS011;69435;52.670;13.544;2023-07-29T01:15:53;4.73;;;4.33;;
21334;SDS011;69435;52.670;13.544;2023-07-29T01:18:45;5.30;;;4.70;;
21334;SDS011;69435;52.670;13.544;2023-07-29T01:21:35;6.07;;;5.33;;
21334;SDS011;69435;52.670;13.544;2023-07-29T01:24:22;5.33;;;4.47;;
21334;SDS011;69435;52.670;13.544;2023-07-29T01:27:08;7.13;;;5.17;;
21334;SDS011;69435;52.670;13.544;2023-07-29T01:29:55;5.27;;;4.77;;
21334;SDS011;69435;52.670;13.544;2023-07-29T01:32:47;11.07;;;6.27;;
21334;SDS011;69435;52.670;13.544;2023-07-29T01:35:51;13.40;;;5.10;;
21334;SDS011;69435;52.670;13.544;2023-07-29T01:38:43;11.97;;;6.57;;
21334;SDS011;69435;52.670;13.544;2023-07-29T01:41:30;6.57;;;5.57;;
21334;SDS011;69435;52.670;13.544;2023-07-29T01:44:17;8.73;;;6.27;;
21334;SDS011;69435;52.670;13.544;2023-07-29T01:47:04;13.73;;;6.23;;
21334;SDS011;69435;52.670;13.544;2023-07-29T01:49:51;9.23;;;5.90;;
21334;SDS011;69435;52.670;13.544;2023-07-29T01:52:37;7.30;;;6.30;;
21334;SDS011;69435;52.670;13.544;2023-07-29T01:55:24;6.60;;;5.67;;
21334;SDS011;69435;52.670;13.544;2023-07-29T01:58:10;8.20;;;6.77;;
21334;SDS011;69435;52.670;13.544;2023-07-29T02:00:56;7.73;;;6.80;;
21334;SDS011;69435;52.670;13.544;2023-07-29T02:03:42;9.27;;;6.27;;
21334;SDS011;69435;52.670;13.544;2023-07-29T02:06:28;7.77;;;6.43;;
21334;SDS011;69435;52.670;13.544;2023-07-29T02:09:14;10.03;;;6.63;;
21334;SDS011;69435;52.670;13.544;2023-07-29T02:12:00;9.20;;;6.20;;
21334;SDS011;69435;52.670;13.544;2023-07-29T02:14:47;8.20;;;5.60;;
21334;SDS011;69435;52.670;13.544;2023-07-29T02:17:33;7.43;;;5.97;;
21334;SDS011;69435;52.670;13.544;2023-07-29T02:20:19;20.53;;;7.03;;
21334;SDS011;69435;52.670;13.544;2023-07-29T02:23:05;17.77;;;6.03;;
21334;SDS011;69435;52.670;13.544;2023-07-29T02:25:51;11.83;;;6.20;;
21334;SDS011;69435;52.670;13.544;2023-07-29T02:28:37;8.37;;;6.27;;
21334;SDS011;69435;52.670;13.544;2023-07-29T02:31:24;7.60;;;5.93;;
21334;SDS011;69435;52.670;13.544;2023-07-29T02:34:10;6.83;;;6.10;;
21334;SDS011;69435;52.670;13.544;2023-07-29T02:36:56;7.43;;;6.03;;
21334;SDS011;69435;52.670;13.544;2023-07-29T02:39:42;8.67;;;6.23;;
21334;SDS011;69435;52.670;13.544;2023-07-29T02:42:28;12.87;;;5.93;;
21334;SDS011;69435;52.670;13.544;2023-07-29T02:45:14;7.57;;;6.57;;
21334;SDS011;69435;52.670;13.544;2023-07-29T02:48:00;10.67;;;6.43;;
21334;SDS011;69435;52.670;13.544;2023-07-29T02:50:46;9.63;;;6.67;;
21334;SDS011;69435;52.670;13.544;2023-07-29T02:53:32;9.40;;;6.50;;
21334;SDS011;69435;52.670;13.544;2023-07-29T02:56:18;7.93;;;6.70;;
21334;SDS011;69435;52.670;13.544;2023-07-29T02:59:04;6.40;;;5.80;;
21334;SDS011;69435;52.670;13.544;2023-07-29T03:01:50;9.03;;;6.43;;
21334;SDS011;69435;52.670;13.544;2023-07-29T03:04:36;11.03;;;6.87;;
21334;SDS011;69435;52.670;13.544;2023-07-29T03:07:22;6.63;;;6.00;;
21334;SDS011;69435;52.670;13.544;2023-07-29T03:10:09;9.87;;;6.23;;
21334;SDS011;69435;52.670;13.544;2023-07-29T03:12:56;7.00;;;6.40;;
21334;SDS011;69435;52.670;13.544;2023-07-29T03:15:42;6.87;;;6.17;;
21334;SDS011;69435;52.670;13.544;2023-07-29T03:18:28;6.13;;;5.53;;
21334;SDS011;69435;52.670;13.544;2023-07-29T03:21:14;6.77;;;6.07;;
21334;SDS011;69435;52.670;13.544;2023-07-29T03:24:00;6.67;;;6.07;;
21334;SDS011;69435;52.670;13.544;2023-07-29T03:26:46;7.80;;;6.33;;
21334;SDS011;69435;52.670;13.544;2023-07-29T03:29:32;6.17;;;5.57;;
21334;SDS011;69435;52.670;13.544;2023-07-29T03:32:18;5.77;;;5.27;;
21334;SDS011;69435;52.670;13.544;2023-07-29T03:35:04;7.13;;;5.60;;
21334;SDS011;69435;52.670;13.544;2023-07-29T03:37:51;7.20;;;6.57;;
21334;SDS011;69435;52.670;13.544;2023-07-29T03:40:37;6.80;;;6.20;;
21334;SDS011;69435;52.670;13.544;2023-07-29T03:43:24;6.73;;;6.10;;
21334;SDS011;69435;52.670;13.544;2023-07-29T03:46:10;6.17;;;5.63;;
21334;SDS011;69435;52.670;13.544;2023-07-29T03:48:56;6.30;;;5.80;;
21334;SDS011;69435;52.670;13.544;2023-07-29T03:51:42;8.93;;;6.43;;
21334;SDS011;69435;52.670;13.544;2023-07-29T03:54:28;7.20;;;6.50;;
21334;SDS011;69435;52.670;13.544;2023-07-29T03:57:14;7.70;;;6.90;;
21334;SDS011;69435;52.670;13.544;2023-07-29T04:00:00;7.50;;;6.80;;
21334;SDS011;69435;52.670;13.544;2023-07-29T04:02:46;9.13;;;7.00;;
21334;SDS011;69435;52.670;13.544;2023-07-29T04:05:34;8.17;;;6.87;;
21334;SDS011;69435;52.670;13.544;2023-07-29T04:08:20;7.50;;;6.23;;
21334;SDS011;69435;52.670;13.544;2023-07-29T04:11:06;7.70;;;6.90;;
21334;SDS011;69435;52.670;13.544;2023-07-29T04:13:52;8.40;;;7.43;;
21334;SDS011;69435;52.670;13.544;2023-07-29T04:16:38;7.10;;;6.40;;
21334;SDS011;69435;52.670;13.544;2023-07-29T04:19:24;7.20;;;6.57;;
21334;SDS011;69435;52.670;13.544;2023-07-29T04:22:10;8.40;;;7.37;;
21334;SDS011;69435;52.670;13.544;2023-07-29T04:24:56;8.27;;;6.77;;
21334;SDS011;69435;52.670;13.544;2023-07-29T04:27:42;6.97;;;6.27;;
21334;SDS011;69435;52.670;13.544;2023-07-29T04:30:28;7.43;;;6.73;;
21334;SDS011;69435;52.670;13.544;2023-07-29T04:33:14;8.90;;;8.10;;
21334;SDS011;69435;52.670;13.544;2023-07-29T04:36:00;10.70;;;8.43;;
21334;SDS011;69435;52.670;13.544;2023-07-29T04:38:46;10.43;;;7.97;;
21334;SDS011;69435;52.670;13.544;2023-07-29T04:41:32;10.77;;;8.73;;
21334;SDS011;69435;52.670;13.544;2023-07-29T04:44:18;10.47;;;8.57;;
21334;SDS011;69435;52.670;13.544;2023-07-29T04:47:04;12.70;;;9.10;;
21334;SDS011;69435;52.670;13.544;2023-07-29T04:49:50;8.47;;;7.67;;
21334;SDS011;69435;52.670;13.544;2023-07-29T04:52:36;11.10;;;8.73;;
21334;SDS011;69435;52.670;13.544;2023-07-29T04:55:22;10.00;;;8.33;;
21334;SDS011;69435;52.670;13.544;2023-07-29T04:58:08;11.20;;;9.27;;
21334;SDS011;69435;52.670;13.544;2023-07-29T05:00:54;12.20;;;9.73;;
21334;SDS011;69435;52.670;13.544;2023-07-29T05:03:41;16.63;;;11.83;;
21334;SDS011;69435;52.670;13.544;2023-07-29T05:06:27;15.63;;;10.53;;
21334;SDS011;69435;52.670;13.544;2023-07-29T05:09:16;12.50;;;9.77;;
21334;SDS011;69435;52.670;13.544;2023-07-29T05:12:08;17.37;;;10.30;;
21334;SDS011;69435;52.670;13.544;2023-07-29T05:14:53;12.10;;;9.70;;
21334;SDS011;69435;52.670;13.544;2023-07-29T05:17:39;15.40;;;10.40;;
21334;SDS011;69435;52.670;13.544;2023-07-29T05:20:25;12.70;;;9.90;;
21334;SDS011;69435;52.670;13.544;2023-07-29T05:23:11;12.27;;;10.60;;
21334;SDS011;69435;52.670;13.544;2023-07-29T05:25:57;10.57;;;9.37;;
21334;SDS011;69435;52.670;13.544;2023-07-29T05:28:43;12.97;;;9.73;;
21334;SDS011;69435;52.670;13.544;2023-07-29T05:31:29;11.23;;;9.90;;
21334;SDS011;69435;52.670;13.544;2023-07-29T05:34:15;10.10;;;9.10;;
21334;SDS011;69435;52.670;13.544;2023-07-29T05:37:01;10.80;;;9.37;;
21334;SDS011;69435;52.670;13.544;2023-07-29T05:39:47;9.63;;;8.70;;
21334;SDS011;69435;52.670;13.544;2023-07-29T05:42:33;10.00;;;8.87;;
21334;SDS011;69435;52.670;13.544;2023-07-29T05:45:19;9.07;;;8.27;;
21334;SDS011;69435;52.670;13.544;2023-07-29T05:48:05;9.23;;;8.43;;
21334;SDS011;69435;52.670;13.544;2023-07-29T05:50:51;9.93;;;8.97;;
21334;SDS011;69435;52.670;13.544;2023-07-29T05:53:37;9.87;;;8.97;;
21334;SDS011;69435;52.670;13.544;2023-07-29T05:56:23;9.30;;;8.50;;
21334;SDS011;69435;52.670;13.544;2023-07-29T05:59:09;9.93;;;8.80;;
21334;SDS011;69435;52.670;13.544;2023-07-29T06:01:55;8.77;;;7.97;;
21334;SDS011;69435;52.670;13.544;2023-07-29T06:04:41;8.40;;;7.77;;
21334;SDS011;69435;52.670;13.544;2023-07-29T06:07:27;8.60;;;7.83;;
21334;SDS011;69435;52.670;13.544;2023-07-29T06:10:16;8.97;;;8.17;;
21334;SDS011;69435;52.670;13.544;2023-07-29T06:13:05;7.63;;;7.13;;
21334;SDS011;69435;52.670;13.544;2023-07-29T06:15:51;7.87;;;7.03;;
21334;SDS011;69435;52.670;13.544;2023-07-29T06:18:37;7.40;;;6.80;;
21334;SDS011;69435;52.670;13.544;2023-07-29T06:21:23;7.40;;;6.90;;
21334;SDS011;69435;52.670;13.544;2023-07-29T06:24:09;7.57;;;6.97;;
21334;SDS011;69435;52.670;13.544;2023-07-29T06:26:58;7.30;;;6.70;;
21334;SDS011;69435;52.670;13.544;2023-07-29T06:29:44;7.50;;;6.90;;
21334;SDS011;69435;52.670;13.544;2023-07-29T06:32:30;8.23;;;7.43;;
21334;SDS011;69435;52.670;13.544;2023-07-29T06:35:16;8.30;;;7.60;;
21334;SDS011;69435;52.670;13.544;2023-07-29T06:38:02;6.60;;;6.10;;
21334;SDS011;69435;52.670;13.544;2023-07-29T06:40:48;7.20;;;6.50;;
21334;SDS011;69435;52.670;13.544;2023-07-29T06:43:34;6.80;;;6.30;;
21334;SDS011;69435;52.670;13.544;2023-07-29T06:46:20;6.53;;;6.03;;
21334;SDS011;69435;52.670;13.544;2023-07-29T06:49:07;6.33;;;5.93;;
21334;SDS011;69435;52.670;13.544;2023-07-29T06:51:53;6.87;;;6.37;;
21334;SDS011;69435;52.670;13.544;2023-07-29T06:54:39;6.80;;;6.07;;
21334;SDS011;69435;52.670;13.544;2023-07-29T06:57:25;5.20;;;4.80;;
21334;SDS011;69435;52.670;13.544;2023-07-29T07:00:11;6.23;;;5.73;;
21334;SDS011;69435;52.670;13.544;2023-07-29T07:02:56;4.93;;;4.53;;
21334;SDS011;69435;52.670;13.544;2023-07-29T07:05:43;6.40;;;4.87;;
21334;SDS011;69435;52.670;13.544;2023-07-29T07:08:29;5.83;;;5.43;;
21334;SDS011;69435;52.670;13.544;2023-07-29T07:11:16;5.60;;;5.10;;
21334;SDS011;69435;52.670;13.544;2023-07-29T07:14:03;5.97;;;5.47;;
21334;SDS011;69435;52.670;13.544;2023-07-29T07:16:49;5.37;;;4.97;;
21334;SDS011;69435;52.670;13.544;2023-07-29T07:19:35;5.03;;;4.70;;
21334;SDS011;69435;52.670;13.544;2023-07-29T07:22:21;4.80;;;4.50;;
21334;SDS011;69435;52.670;13.544;2023-07-29T07:25:07;5.05;;;4.75;;
21334;SDS011;69435;52.670;13.544;2023-07-29T07:27:54;5.25;;;4.90;;
21334;SDS011;69435;52.670;13.544;2023-07-29T07:30:40;4.53;;;4.22;;
21334;SDS011;69435;52.670;13.544;2023-07-29T07:33:26;4.10;;;3.70;;
21334;SDS011;69435;52.670;13.544;2023-07-29T07:36:12;4.65;;;4.32;;
21334;SDS011;69435;52.670;13.544;2023-07-29T07:38:58;4.60;;;4.30;;
21334;SDS011;69435;52.670;13.544;2023-07-29T07:41:44;4.47;;;4.18;;
21334;SDS011;69435;52.670;13.544;2023-07-29T07:44:30;4.20;;;3.97;;
21334;SDS011;69435;52.670;13.544;2023-07-29T07:47:16;4.03;;;3.75;;
21334;SDS011;69435;52.670;13.544;2023-07-29T07:50:02;5.47;;;4.95;;
21334;SDS011;69435;52.670;13.544;2023-07-29T07:52:49;4.57;;;4.28;;
21334;SDS011;69435;52.670;13.544;2023-07-29T07:55:35;5.18;;;4.88;;
21334;SDS011;69435;52.670;13.544;2023-07-29T07:58:21;4.60;;;4.30;;
21334;SDS011;69435;52.670;13.544;2023-07-29T08:01:07;4.50;;;4.20;;
21334;SDS011;69435;52.670;13.544;2023-07-29T08:03:54;5.03;;;4.72;;
21334;SDS011;69435;52.670;13.544;2023-07-29T08:06:40;4.80;;;4.50;;
21334;SDS011;69435;52.670;13.544;2023-07-29T08:09:26;4.75;;;4.43;;
21334;SDS011;69435;52.670;13.544;2023-07-29T08:12:12;5.80;;;5.40;;
21334;SDS011;69435;52.670;13.544;2023-07-29T08:14:59;5.32;;;4.93;;
21334;SDS011;69435;52.670;13.544;2023-07-29T08:17:45;6.57;;;6.07;;
21334;SDS011;69435;52.670;13.544;2023-07-29T08:20:31;4.95;;;4.65;;
21334;SDS011;69435;52.670;13.544;2023-07-29T08:23:18;5.10;;;4.57;;
21334;SDS011;69435;52.670;13.544;2023-07-29T08:26:04;4.30;;;4.10;;
21334;SDS011;69435;52.670;13.544;2023-07-29T08:28:51;7.78;;;7.28;;
21334;SDS011;69435;52.670;13.544;2023-07-29T08:31:37;8.00;;;7.50;;
21334;SDS011;69435;52.670;13.544;2023-07-29T08:34:24;12.05;;;11.25;;
21334;SDS011;69435;52.670;13.544;2023-07-29T08:37:10;4.95;;;4.60;;
21334;SDS011;69435;52.670;13.544;2023-07-29T08:39:56;5.03;;;4.70;;
21334;SDS011;69435;52.670;13.544;2023-07-29T08:42:42;4.43;;;4.22;;
21334;SDS011;69435;52.670;13.544;2023-07-29T08:45:35;6.40;;;5.90;;
21334;SDS011;69435;52.670;13.544;2023-07-29T08:48:41;10.60;;;9.82;;
21334;SDS011;69435;52.670;13.544;2023-07-29T08:51:28;5.03;;;4.72;;
21334;SDS011;69435;52.670;13.544;2023-07-29T08:54:17;5.05;;;4.75;;
21334;SDS011;69435;52.670;13.544;2023-07-29T08:57:03;5.00;;;4.68;;
21334;SDS011;69435;52.670;13.544;2023-07-29T08:59:51;5.53;;;5.05;;
21334;SDS011;69435;52.670;13.544;2023-07-29T09:02:37;20.35;;;18.25;;
21334;SDS011;69435;52.670;13.544;2023-07-29T09:05:23;12.80;;;11.77;;
21334;SDS011;69435;52.670;13.544;2023-07-29T09:08:09;5.28;;;4.97;;
21334;SDS011;69435;52.670;13.544;2023-07-29T09:10:56;4.80;;;4.50;;
21334;SDS011;69435;52.670;13.544;2023-07-29T09:13:42;4.78;;;4.47;;
21334;SDS011;69435;52.670;13.544;2023-07-29T09:16:30;5.00;;;4.70;;
21334;SDS011;69435;52.670;13.544;2023-07-29T09:19:17;4.65;;;4.45;;
21334;SDS011;69435;52.670;13.544;2023-07-29T09:22:04;4.88;;;4.57;;
21334;SDS011;69435;52.670;13.544;2023-07-29T09:24:50;5.20;;;4.75;;
21334;SDS011;69435;52.670;13.544;2023-07-29T09:27:37;5.57;;;5.28;;
21334;SDS011;69435;52.670;13.544;2023-07-29T09:30:25;9.48;;;8.80;;
21334;SDS011;69435;52.670;13.544;2023-07-29T09:33:11;5.30;;;4.85;;
21334;SDS011;69435;52.670;13.544;2023-07-29T09:35:57;4.25;;;3.95;;
21334;SDS011;69435;52.670;13.544;2023-07-29T09:38:44;4.28;;;4.05;;
21334;SDS011;69435;52.670;13.544;2023-07-29T09:41:31;4.20;;;3.90;;
21334;SDS011;69435;52.670;13.544;2023-07-29T09:44:16;3.63;;;3.35;;
21334;SDS011;69435;52.670;13.544;2023-07-29T09:47:02;4.00;;;3.70;;
21334;SDS011;69435;52.670;13.544;2023-07-29T09:49:49;3.47;;;3.28;;
21334;SDS011;69435;52.670;13.544;2023-07-29T09:52:37;3.47;;;3.28;;
21334;SDS011;69435;52.670;13.544;2023-07-29T09:55:23;3.40;;;3.28;;
21334;SDS011;69435;52.670;13.544;2023-07-29T09:58:11;4.05;;;3.85;;
21334;SDS011;69435;52.670;13.544;2023-07-29T10:00:57;3.42;;;3.22;;
21334;SDS011;69435;52.670;13.544;2023-07-29T10:03:44;3.65;;;3.45;;
21334;SDS011;69435;52.670;13.544;2023-07-29T10:06:30;4.20;;;3.90;;
21334;SDS011;69435;52.670;13.544;2023-07-29T10:09:20;3.20;;;3.10;;
21334;SDS011;69435;52.670;13.544;2023-07-29T10:12:06;3.10;;;2.90;;
21334;SDS011;69435;52.670;13.544;2023-07-29T10:14:54;3.22;;;3.03;;
21334;SDS011;69435;52.670;13.544;2023-07-29T10:17:44;3.67;;;3.03;;
21334;SDS011;69435;52.670;13.544;2023-07-29T10:20:32;3.10;;;2.90;;
21334;SDS011;69435;52.670;13.544;2023-07-29T10:23:21;2.60;;;2.50;;
21334;SDS011;69435;52.670;13.544;2023-07-29T10:26:10;2.70;;;2.50;;
21334;SDS011;69435;52.670;13.544;2023-07-29T10:28:58;2.88;;;2.70;;
21334;SDS011;69435;52.670;13.544;2023-07-29T10:31:53;2.75;;;2.55;;
21334;SDS011;69435;52.670;13.544;2023-07-29T10:34:46;2.70;;;2.60;;
21334;SDS011;69435;52.670;13.544;2023-07-29T10:37:33;4.95;;;2.72;;
21334;SDS011;69435;52.670;13.544;2023-07-29T10:40:19;2.95;;;2.75;;
21334;SDS011;69435;52.670;13.544;2023-07-29T10:43:11;3.80;;;3.55;;
21334;SDS011;69435;52.670;13.544;2023-07-29T10:46:22;5.03;;;3.47;;
21334;SDS011;69435;52.670;13.544;2023-07-29T10:49:08;9.38;;;8.55;;
21334;SDS011;69435;52.670;13.544;2023-07-29T10:51:54;5.45;;;5.07;;
21334;SDS011;69435;52.670;13.544;2023-07-29T10:54:47;5.93;;;3.15;;
21334;SDS011;69435;52.670;13.544;2023-07-29T10:57:34;2.85;;;2.65;;
21334;SDS011;69435;52.670;13.544;2023-07-29T11:00:23;2.63;;;2.47;;
21334;SDS011;69435;52.670;13.544;2023-07-29T11:03:17;2.67;;;2.50;;
21334;SDS011;69435;52.670;13.544;2023-07-29T11:06:06;3.95;;;2.50;;
21334;SDS011;69435;52.670;13.544;2023-07-29T11:08:52;2.53;;;2.42;;
21334;SDS011;69435;52.670;13.544;2023-07-29T11:11:38;2.20;;;2.10;;
21334;SDS011;69435;52.670;13.544;2023-07-29T11:14:24;3.70;;;3.00;;
21334;SDS011;69435;52.670;13.544;2023-07-29T11:17:10;2.90;;;2.70;;
21334;SDS011;69435;52.670;13.544;2023-07-29T11:20:00;2.10;;;2.00;;
21334;SDS011;69435;52.670;13.544;2023-07-29T11:22:48;2.72;;;2.53;;
21334;SDS011;69435;52.670;13.544;2023-07-29T11:25:35;4.05;;;3.13;;
21334;SDS011;69435;52.670;13.544;2023-07-29T11:28:21;2.20;;;1.60;;
21334;SDS011;69435;52.670;13.544;2023-07-29T11:31:07;1.00;;;0.90;;
21334;SDS011;69435;52.670;13.544;2023-07-29T11:33:53;0.85;;;0.80;;
21334;SDS011;69435;52.670;13.544;2023-07-29T11:36:43;1.17;;;0.70;;
21334;SDS011;69435;52.670;13.544;2023-07-29T11:39:31;0.97;;;0.87;;
21334;SDS011;69435;52.670;13.544;2023-07-29T11:42:17;0.97;;;0.83;;
21334;SDS011;69435;52.670;13.544;2023-07-29T11:45:04;1.40;;;0.70;;
21334;SDS011;69435;52.670;13.544;2023-07-29T11:47:51;0.67;;;0.67;;
21334;SDS011;69435;52.670;13.544;2023-07-29T11:50:37;0.53;;;0.50;;
21334;SDS011;69435;52.670;13.544;2023-07-29T11:53:25;1.37;;;0.60;;
21334;SDS011;69435;52.670;13.544;2023-07-29T11:56:14;0.83;;;0.83;;
21334;SDS011;69435;52.670;13.544;2023-07-29T11:59:01;0.70;;;0.70;;
21334;SDS011;69435;52.670;13.544;2023-07-29T12:01:48;0.73;;;0.73;;
21334;SDS011;69435;52.670;13.544;2023-07-29T12:04:34;0.87;;;0.83;;
21334;SDS011;69435;52.670;13.544;2023-07-29T12:07:20;0.87;;;0.67;;
21334;SDS011;69435;52.670;13.544;2023-07-29T12:10:06;0.67;;;0.60;;
21334;SDS011;69435;52.670;13.544;2023-07-29T12:12:53;1.20;;;1.10;;
21334;SDS011;69435;52.670;13.544;2023-07-29T12:15:40;2.87;;;1.00;;
21334;SDS011;69435;52.670;13.544;2023-07-29T12:18:29;1.13;;;1.03;;
21334;SDS011;69435;52.670;13.544;2023-07-29T12:21:18;2.47;;;1.20;;
21334;SDS011;69435;52.670;13.544;2023-07-29T12:24:05;1.00;;;0.90;;
21334;SDS011;69435;52.670;13.544;2023-07-29T12:26:51;1.13;;;1.00;;
21334;SDS011;69435;52.670;13.544;2023-07-29T12:29:41;0.97;;;0.97;;
21334;SDS011;69435;52.670;13.544;2023-07-29T12:32:29;1.30;;;1.20;;
21334;SDS011;69435;52.670;13.544;2023-07-29T12:35:15;0.90;;;0.90;;
21334;SDS011;69435;52.670;13.544;2023-07-29T12:38:01;1.07;;;0.90;;
21334;SDS011;69435;52.670;13.544;2023-07-29T12:40:47;1.43;;;1.30;;
21334;SDS011;69435;52.670;13.544;2023-07-29T12:43:33;1.30;;;1.20;;
21334;SDS011;69435;52.670;13.544;2023-07-29T12:46:20;1.80;;;1.17;;
21334;SDS011;69435;52.670;13.544;2023-07-29T12:49:06;1.40;;;1.30;;
21334;SDS011;69435;52.670;13.544;2023-07-29T12:51:52;1.07;;;1.07;;
21334;SDS011;69435;52.670;13.544;2023-07-29T12:54:39;1.00;;;1.00;;
21334;SDS011;69435;52.670;13.544;2023-07-29T12:57:25;1.10;;;1.10;;
21334;SDS011;69435;52.670;13.544;2023-07-29T13:00:11;1.30;;;1.30;;
21334;SDS011;69435;52.670;13.544;2023-07-29T13:02:58;1.70;;;1.60;;
21334;SDS011;69435;52.670;13.544;2023-07-29T13:05:44;1.73;;;1.63;;
21334;SDS011;69435;52.670;13.544;2023-07-29T13:08:30;1.73;;;1.63;;
21334;SDS011;69435;52.670;13.544;2023-07-29T13:11:16;1.60;;;1.50;;
21334;SDS011;69435;52.670;13.544;2023-07-29T13:14:03;1.50;;;1.40;;
21334;SDS011;69435;52.670;13.544;2023-07-29T13:16:49;1.80;;;1.70;;
21334;SDS011;69435;52.670;13.544;2023-07-29T13:19:35;2.08;;;1.98;;
21334;SDS011;69435;52.670;13.544;2023-07-29T13:22:21;1.88;;;1.77;;
21334;SDS011;69435;52.670;13.544;2023-07-29T13:25:07;1.90;;;1.80;;
21334;SDS011;69435;52.670;13.544;2023-07-29T13:27:53;2.05;;;1.95;;
21334;SDS011;69435;52.670;13.544;2023-07-29T13:30:40;1.73;;;1.63;;
21334;SDS011;69435;52.670;13.544;2023-07-29T13:33:26;2.30;;;2.20;;
21334;SDS011;69435;52.670;13.544;2023-07-29T13:36:12;2.53;;;2.33;;
21334;SDS011;69435;52.670;13.544;2023-07-29T13:38:58;2.40;;;2.30;;
21334;SDS011;69435;52.670;13.544;2023-07-29T13:41:43;2.50;;;2.40;;
21334;SDS011;69435;52.670;13.544;2023-07-29T13:44:29;2.50;;;2.30;;
21334;SDS011;69435;52.670;13.544;2023-07-29T13:47:15;2.53;;;2.38;;
21334;SDS011;69435;52.670;13.544;2023-07-29T13:50:01;2.70;;;2.60;;
21334;SDS011;69435;52.670;13.544;2023-07-29T13:52:48;2.38;;;2.28;;
21334;SDS011;69435;52.670;13.544;2023-07-29T13:55:34;2.70;;;2.60;;
21334;SDS011;69435;52.670;13.544;2023-07-29T13:58:20;2.90;;;2.25;;
21334;SDS011;69435;52.670;13.544;2023-07-29T14:01:06;2.45;;;2.35;;
21334;SDS011;69435;52.670;13.544;2023-07-29T14:03:52;2.63;;;2.30;;
21334;SDS011;69435;52.670;13.544;2023-07-29T14:06:38;2.10;;;2.00;;
21334;SDS011;69435;52.670;13.544;2023-07-29T14:09:24;2.90;;;2.25;;
21334;SDS011;69435;52.670;13.544;2023-07-29T14:12:12;1.58;;;1.48;;
21334;SDS011;69435;52.670;13.544;2023-07-29T14:15:00;2.15;;;2.05;;
21334;SDS011;69435;52.670;13.544;2023-07-29T14:17:46;1.67;;;1.67;;
21334;SDS011;69435;52.670;13.544;2023-07-29T14:20:32;1.60;;;1.60;;
21334;SDS011;69435;52.670;13.544;2023-07-29T14:23:18;1.50;;;1.50;;
21334;SDS011;69435;52.670;13.544;2023-07-29T14:26:04;1.55;;;1.45;;
21334;SDS011;69435;52.670;13.544;2023-07-29T14:28:50;1.58;;;1.50;;
21334;SDS011;69435;52.670;13.544;2023-07-29T14:31:36;1.30;;;1.25;;
21334;SDS011;69435;52.670;13.544;2023-07-29T14:34:22;1.40;;;1.40;;
21334;SDS011;69435;52.670;13.544;2023-07-29T14:37:08;1.33;;;1.23;;
21334;SDS011;69435;52.670;13.544;2023-07-29T14:39:54;1.15;;;1.15;;
21334;SDS011;69435;52.670;13.544;2023-07-29T14:42:40;1.55;;;1.48;;
21334;SDS011;69435;52.670;13.544;2023-07-29T14:45:26;1.52;;;1.42;;
21334;SDS011;69435;52.670;13.544;2023-07-29T14:48:12;2.15;;;1.20;;
21334;SDS011;69435;52.670;13.544;2023-07-29T14:50:58;1.58;;;1.48;;
21334;SDS011;69435;52.670;13.544;2023-07-29T14:53:44;1.10;;;1.10;;
21334;SDS011;69435;52.670;13.544;2023-07-29T14:56:30;1.50;;;1.40;;
21334;SDS011;69435;52.670;13.544;2023-07-29T14:59:16;1.50;;;1.40;;
21334;SDS011;69435;52.670;13.544;2023-07-29T15:02:02;1.80;;;1.70;;
21334;SDS011;69435;52.670;13.544;2023-07-29T15:04:48;1.52;;;1.50;;
21334;SDS011;69435;52.670;13.544;2023-07-29T15:07:34;1.73;;;1.67;;
21334;SDS011;69435;52.670;13.544;2023-07-29T15:10:21;1.95;;;1.85;;
21334;SDS011;69435;52.670;13.544;2023-07-29T15:13:07;1.75;;;1.63;;
21334;SDS011;69435;52.670;13.544;2023-07-29T15:15:53;1.38;;;1.38;;
21334;SDS011;69435;52.670;13.544;2023-07-29T15:18:39;1.60;;;1.50;;
21334;SDS011;69435;52.670;13.544;2023-07-29T15:21:25;2.97;;;1.60;;
21334;SDS011;69435;52.670;13.544;2023-07-29T15:24:11;2.28;;;1.48;;
21334;SDS011;69435;52.670;13.544;2023-07-29T15:26:58;1.42;;;1.33;;
21334;SDS011;69435;52.670;13.544;2023-07-29T15:29:44;2.67;;;1.55;;
21334;SDS011;69435;52.670;13.544;2023-07-29T15:32:30;2.20;;;1.88;;
21334;SDS011;69435;52.670;13.544;2023-07-29T15:35:16;1.42;;;1.33;;
21334;SDS011;69435;52.670;13.544;2023-07-29T15:38:02;1.63;;;1.52;;
21334;SDS011;69435;52.670;13.544;2023-07-29T15:40:48;3.78;;;1.50;;
21334;SDS011;69435;52.670;13.544;2023-07-29T15:43:35;2.75;;;1.30;;
21334;SDS011;69435;52.670;13.544;2023-07-29T15:46:21;1.50;;;1.50;;
21334;SDS011;69435;52.670;13.544;2023-07-29T15:49:07;1.17;;;1.17;;
21334;SDS011;69435;52.670;13.544;2023-07-29T15:51:54;1.70;;;1.20;;
21334;SDS011;69435;52.670;13.544;2023-07-29T15:54:40;1.30;;;1.20;;
21334;SDS011;69435;52.670;13.544;2023-07-29T15:57:27;1.50;;;1.50;;
21334;SDS011;69435;52.670;13.544;2023-07-29T16:00:13;1.50;;;1.50;;
21334;SDS011;69435;52.670;13.544;2023-07-29T16:02:59;1.70;;;1.60;;
21334;SDS011;69435;52.670;13.544;2023-07-29T16:05:45;1.40;;;1.40;;
21334;SDS011;69435;52.670;13.544;2023-07-29T16:08:31;1.65;;;1.55;;
21334;SDS011;69435;52.670;13.544;2023-07-29T16:11:17;2.20;;;2.10;;
21334;SDS011;69435;52.670;13.544;2023-07-29T16:14:04;1.70;;;1.60;;
21334;SDS011;69435;52.670;13.544;2023-07-29T16:16:50;1.90;;;1.80;;
21334;SDS011;69435;52.670;13.544;2023-07-29T16:19:51;2.25;;;2.05;;
21334;SDS011;69435;52.670;13.544;2023-07-29T16:22:43;1.93;;;1.83;;
21334;SDS011;69435;52.670;13.544;2023-07-29T16:25:29;2.07;;;1.77;;
21334;SDS011;69435;52.670;13.544;2023-07-29T16:28:15;1.50;;;1.50;;
21334;SDS011;69435;52.670;13.544;2023-07-29T16:31:02;1.90;;;1.80;;
21334;SDS011;69435;52.670;13.544;2023-07-29T16:33:48;1.60;;;1.50;;